This is the latest recevied weather packets stored in our database for station/object DH9NFM-11. If no packets are shown the sender has not sent any weather packets the latest 10 day(s).
| Time | Temp. | Humidity | Pressure | Rain* | Wind** | Luminosity | Snow |
|---|---|---|---|---|---|---|---|
| 1777742796 | 23.89° C | 29% | 1013.7 hPa | 0 mm | - | - | - |
| 1777740999 | 24.44° C | 28% | 1013.9 hPa | 0 mm | - | - | - |
| 1777732589 | 26.11° C | 26% | 1015.5 hPa | 0 mm | - | - | - |
| 1777726592 | 25.56° C | 27% | 1017 hPa | 0 mm | - | - | - |
| 1777725986 | 25.56° C | 27% | 1017.2 hPa | 0 mm | - | - | - |
| 1777721806 | 23.89° C | 31% | 1018.2 hPa | 0 mm | - | - | - |
| 1777718818 | 22.22° C | 35% | 1018.8 hPa | 0 mm | - | - | - |
| 1777718192 | 22.78° C | 33% | 1018.9 hPa | 0 mm | - | - | - |
| 1777713406 | 20.56° C | 38% | 1020 hPa | 0 mm | - | - | - |
| 1777707388 | 16.67° C | 53% | 1020.9 hPa | 0 mm | - | - | - |
| 1777704359 | 12.22° C | 66% | 1021.1 hPa | 0 mm | - | - | - |
| 1777703207 | 10° C | 72% | 1021.1 hPa | 0 mm | - | - | - |
| 1777701996 | 8.89° C | 76% | 1021.1 hPa | 0 mm | - | - | - |
| 1777701390 | 7.78° C | 77% | 1021.3 hPa | 0 mm | - | - | - |
| 1777695998 | 2.22° C | 95% | 1021.4 hPa | 0 mm | - | - | - |
| 1777694181 | 2.78° C | 94% | 1021.5 hPa | 0 mm | - | - | - |
| 1777688183 | 3.33° C | 93% | 1021.7 hPa | 0 mm | - | - | - |
| 1777683397 | 5° C | 88% | 1022 hPa | 0 mm | - | - | - |
| 1777682792 | 5° C | 89% | 1021.9 hPa | 0 mm | - | - | - |
| 1777678552 | 6.11° C | 84% | 1022.2 hPa | 0 mm | - | - | - |
| 1777678006 | 6.11° C | 85% | 1022.1 hPa | 0 mm | - | - | - |
| 1777676793 | 6.67° C | 81% | 1022.2 hPa | 0 mm | - | - | - |
| 1777673158 | 7.78° C | 78% | 1022.3 hPa | 0 mm | - | - | - |
| 1777668373 | 10° C | 71% | 1022.3 hPa | 0 mm | - | - | - |
| 1777664192 | 11.67° C | 65% | 1022.1 hPa | 0 mm | - | - | - |
* Rain latest hour (hover to see other rain measurements)
** Current wind speed in m/s (hover to see current wind gust speed)